sensor_id;sensor_type;location;lat;lon;timestamp;P1;durP1;ratioP1;P2;durP2;ratioP2
9860;SDS011;4969;52.304;4.968;2022-12-29T00:01:51;3.33;;;3.03;;
9860;SDS011;4969;52.304;4.968;2022-12-29T00:04:17;3.75;;;3.45;;
9860;SDS011;4969;52.304;4.968;2022-12-29T00:06:44;4.82;;;4.22;;
9860;SDS011;4969;52.304;4.968;2022-12-29T00:09:11;3.25;;;3.05;;
9860;SDS011;4969;52.304;4.968;2022-12-29T00:11:38;4.55;;;4.15;;
9860;SDS011;4969;52.304;4.968;2022-12-29T00:14:09;4.07;;;3.72;;
9860;SDS011;4969;52.304;4.968;2022-12-29T00:16:54;3.95;;;3.40;;
9860;SDS011;4969;52.304;4.968;2022-12-29T00:19:20;5.05;;;4.63;;
9860;SDS011;4969;52.304;4.968;2022-12-29T00:22:05;4.43;;;4.05;;
9860;SDS011;4969;52.304;4.968;2022-12-29T00:24:49;4.20;;;3.83;;
9860;SDS011;4969;52.304;4.968;2022-12-29T00:27:34;3.67;;;3.40;;
9860;SDS011;4969;52.304;4.968;2022-12-29T00:30:20;4.13;;;3.72;;
9860;SDS011;4969;52.304;4.968;2022-12-29T00:33:09;4.30;;;3.90;;
9860;SDS011;4969;52.304;4.968;2022-12-29T00:35:53;4.28;;;3.88;;
9860;SDS011;4969;52.304;4.968;2022-12-29T00:38:25;9.77;;;8.32;;
9860;SDS011;4969;52.304;4.968;2022-12-29T00:41:10;20.85;;;14.32;;
9860;SDS011;4969;52.304;4.968;2022-12-29T00:43:54;19.42;;;17.40;;
9860;SDS011;4969;52.304;4.968;2022-12-29T00:46:37;6.00;;;5.43;;
9860;SDS011;4969;52.304;4.968;2022-12-29T00:49:04;37.97;;;26.02;;
9860;SDS011;4969;52.304;4.968;2022-12-29T00:51:48;10.15;;;8.90;;
9860;SDS011;4969;52.304;4.968;2022-12-29T00:54:16;36.08;;;28.67;;
9860;SDS011;4969;52.304;4.968;2022-12-29T00:56:43;17.88;;;15.10;;
9860;SDS011;4969;52.304;4.968;2022-12-29T00:59:11;30.30;;;24.90;;
9860;SDS011;4969;52.304;4.968;2022-12-29T01:01:39;26.40;;;21.63;;
9860;SDS011;4969;52.304;4.968;2022-12-29T01:04:06;8.07;;;7.22;;
9860;SDS011;4969;52.304;4.968;2022-12-29T01:06:33;44.80;;;37.90;;
9860;SDS011;4969;52.304;4.968;2022-12-29T01:09:01;58.78;;;41.08;;
9860;SDS011;4969;52.304;4.968;2022-12-29T01:11:45;31.52;;;24.65;;
9860;SDS011;4969;52.304;4.968;2022-12-29T01:14:12;13.18;;;11.25;;
9860;SDS011;4969;52.304;4.968;2022-12-29T01:16:40;46.20;;;26.50;;
9860;SDS011;4969;52.304;4.968;2022-12-29T01:19:07;26.27;;;20.05;;
9860;SDS011;4969;52.304;4.968;2022-12-29T01:21:33;27.17;;;22.90;;
9860;SDS011;4969;52.304;4.968;2022-12-29T01:24:00;28.45;;;25.20;;
9860;SDS011;4969;52.304;4.968;2022-12-29T01:26:27;15.70;;;13.23;;
9860;SDS011;4969;52.304;4.968;2022-12-29T01:28:53;33.13;;;28.73;;
9860;SDS011;4969;52.304;4.968;2022-12-29T01:31:20;39.70;;;32.72;;
9860;SDS011;4969;52.304;4.968;2022-12-29T01:33:48;23.77;;;21.02;;
9860;SDS011;4969;52.304;4.968;2022-12-29T01:36:16;4.43;;;4.00;;
9860;SDS011;4969;52.304;4.968;2022-12-29T01:38:43;35.28;;;29.75;;
9860;SDS011;4969;52.304;4.968;2022-12-29T01:41:11;44.65;;;33.45;;
9860;SDS011;4969;52.304;4.968;2022-12-29T01:43:40;21.40;;;16.58;;
9860;SDS011;4969;52.304;4.968;2022-12-29T01:46:11;39.85;;;31.38;;
9860;SDS011;4969;52.304;4.968;2022-12-29T01:48:45;50.08;;;35.63;;
9860;SDS011;4969;52.304;4.968;2022-12-29T01:51:15;34.95;;;29.55;;
9860;SDS011;4969;52.304;4.968;2022-12-29T01:53:42;26.02;;;20.92;;
9860;SDS011;4969;52.304;4.968;2022-12-29T01:56:11;28.58;;;20.92;;
9860;SDS011;4969;52.304;4.968;2022-12-29T01:58:41;18.23;;;15.93;;
9860;SDS011;4969;52.304;4.968;2022-12-29T02:01:12;39.13;;;30.00;;
9860;SDS011;4969;52.304;4.968;2022-12-29T02:03:40;26.43;;;22.53;;
9860;SDS011;4969;52.304;4.968;2022-12-29T02:06:09;19.85;;;15.13;;
9860;SDS011;4969;52.304;4.968;2022-12-29T02:08:39;20.25;;;16.88;;
9860;SDS011;4969;52.304;4.968;2022-12-29T02:11:06;50.65;;;36.72;;
9860;SDS011;4969;52.304;4.968;2022-12-29T02:13:33;27.77;;;21.23;;
9860;SDS011;4969;52.304;4.968;2022-12-29T02:16:02;30.73;;;24.48;;
9860;SDS011;4969;52.304;4.968;2022-12-29T02:18:43;21.15;;;15.48;;
9860;SDS011;4969;52.304;4.968;2022-12-29T02:27:34;30.63;;;26.17;;
9860;SDS011;4969;52.304;4.968;2022-12-29T02:30:33;22.77;;;17.17;;
9860;SDS011;4969;52.304;4.968;2022-12-29T02:33:12;23.77;;;18.83;;
9860;SDS011;4969;52.304;4.968;2022-12-29T02:35:51;23.75;;;19.58;;
9860;SDS011;4969;52.304;4.968;2022-12-29T02:38:29;25.50;;;16.70;;
9860;SDS011;4969;52.304;4.968;2022-12-29T02:41:07;22.00;;;18.10;;
9860;SDS011;4969;52.304;4.968;2022-12-29T02:43:43;22.00;;;17.40;;
9860;SDS011;4969;52.304;4.968;2022-12-29T02:46:17;18.60;;;15.53;;
9860;SDS011;4969;52.304;4.968;2022-12-29T02:48:50;17.77;;;13.20;;
9860;SDS011;4969;52.304;4.968;2022-12-29T02:51:23;12.47;;;8.70;;
9860;SDS011;4969;52.304;4.968;2022-12-29T02:53:54;14.87;;;11.70;;
9860;SDS011;4969;52.304;4.968;2022-12-29T02:56:47;8.13;;;4.90;;
9860;SDS011;4969;52.304;4.968;2022-12-29T02:59:14;26.73;;;19.33;;
9860;SDS011;4969;52.304;4.968;2022-12-29T03:01:49;13.40;;;9.87;;
9860;SDS011;4969;52.304;4.968;2022-12-29T03:04:45;18.57;;;15.40;;
9860;SDS011;4969;52.304;4.968;2022-12-29T03:07:23;15.43;;;12.73;;
9860;SDS011;4969;52.304;4.968;2022-12-29T03:09:57;16.70;;;14.97;;
9860;SDS011;4969;52.304;4.968;2022-12-29T03:12:29;19.90;;;16.63;;
9860;SDS011;4969;52.304;4.968;2022-12-29T03:15:20;11.83;;;10.30;;
9860;SDS011;4969;52.304;4.968;2022-12-29T03:18:10;15.03;;;12.43;;
9860;SDS011;4969;52.304;4.968;2022-12-29T03:20:42;9.80;;;8.30;;
9860;SDS011;4969;52.304;4.968;2022-12-29T03:23:18;9.33;;;6.57;;
9860;SDS011;4969;52.304;4.968;2022-12-29T03:25:46;10.60;;;9.30;;
9860;SDS011;4969;52.304;4.968;2022-12-29T03:28:17;22.27;;;16.80;;
9860;SDS011;4969;52.304;4.968;2022-12-29T03:30:48;13.77;;;10.40;;
9860;SDS011;4969;52.304;4.968;2022-12-29T03:33:17;19.77;;;13.27;;
9860;SDS011;4969;52.304;4.968;2022-12-29T03:35:47;15.97;;;11.03;;
9860;SDS011;4969;52.304;4.968;2022-12-29T03:38:17;11.50;;;6.60;;
9860;SDS011;4969;52.304;4.968;2022-12-29T03:40:48;14.70;;;9.87;;
9860;SDS011;4969;52.304;4.968;2022-12-29T03:43:18;9.77;;;4.80;;
9860;SDS011;4969;52.304;4.968;2022-12-29T03:45:44;16.37;;;9.80;;
9860;SDS011;4969;52.304;4.968;2022-12-29T03:48:11;15.20;;;9.97;;
9860;SDS011;4969;52.304;4.968;2022-12-29T03:50:39;12.83;;;4.93;;
9860;SDS011;4969;52.304;4.968;2022-12-29T03:53:06;10.53;;;5.50;;
9860;SDS011;4969;52.304;4.968;2022-12-29T03:55:33;22.00;;;16.00;;
9860;SDS011;4969;52.304;4.968;2022-12-29T03:57:59;14.30;;;9.00;;
9860;SDS011;4969;52.304;4.968;2022-12-29T04:00:26;13.83;;;8.60;;
9860;SDS011;4969;52.304;4.968;2022-12-29T04:02:53;12.37;;;7.27;;
9860;SDS011;4969;52.304;4.968;2022-12-29T04:05:19;16.00;;;9.97;;
9860;SDS011;4969;52.304;4.968;2022-12-29T04:07:48;12.97;;;9.20;;
9860;SDS011;4969;52.304;4.968;2022-12-29T04:10:15;15.93;;;9.73;;
9860;SDS011;4969;52.304;4.968;2022-12-29T04:12:41;15.63;;;10.77;;
9860;SDS011;4969;52.304;4.968;2022-12-29T04:15:08;8.73;;;2.87;;
9860;SDS011;4969;52.304;4.968;2022-12-29T04:17:35;17.70;;;12.50;;
9860;SDS011;4969;52.304;4.968;2022-12-29T04:20:02;11.47;;;7.90;;
9860;SDS011;4969;52.304;4.968;2022-12-29T04:22:43;12.17;;;7.57;;
9860;SDS011;4969;52.304;4.968;2022-12-29T04:25:11;10.03;;;4.97;;
9860;SDS011;4969;52.304;4.968;2022-12-29T04:27:38;10.47;;;6.57;;
9860;SDS011;4969;52.304;4.968;2022-12-29T04:30:05;10.43;;;7.47;;
9860;SDS011;4969;52.304;4.968;2022-12-29T04:32:32;11.33;;;5.83;;
9860;SDS011;4969;52.304;4.968;2022-12-29T04:34:59;11.97;;;7.33;;
9860;SDS011;4969;52.304;4.968;2022-12-29T04:37:25;10.67;;;6.77;;
9860;SDS011;4969;52.304;4.968;2022-12-29T04:39:52;10.17;;;6.17;;
9860;SDS011;4969;52.304;4.968;2022-12-29T04:42:20;9.43;;;5.93;;
9860;SDS011;4969;52.304;4.968;2022-12-29T04:44:46;12.60;;;5.57;;
9860;SDS011;4969;52.304;4.968;2022-12-29T04:47:13;13.00;;;5.47;;
9860;SDS011;4969;52.304;4.968;2022-12-29T04:49:39;11.13;;;5.00;;
9860;SDS011;4969;52.304;4.968;2022-12-29T04:52:06;9.60;;;3.63;;
9860;SDS011;4969;52.304;4.968;2022-12-29T04:54:33;14.00;;;6.27;;
9860;SDS011;4969;52.304;4.968;2022-12-29T04:57:00;14.67;;;3.53;;
9860;SDS011;4969;52.304;4.968;2022-12-29T04:59:28;13.07;;;6.30;;
9860;SDS011;4969;52.304;4.968;2022-12-29T05:01:54;17.00;;;6.10;;
9860;SDS011;4969;52.304;4.968;2022-12-29T05:04:21;13.67;;;6.70;;
9860;SDS011;4969;52.304;4.968;2022-12-29T05:06:48;10.47;;;3.83;;
9860;SDS011;4969;52.304;4.968;2022-12-29T05:09:14;9.53;;;3.90;;
9860;SDS011;4969;52.304;4.968;2022-12-29T05:11:41;12.10;;;5.43;;
9860;SDS011;4969;52.304;4.968;2022-12-29T05:14:07;8.70;;;4.70;;
9860;SDS011;4969;52.304;4.968;2022-12-29T05:16:35;9.20;;;3.47;;
9860;SDS011;4969;52.304;4.968;2022-12-29T05:19:02;8.00;;;4.67;;
9860;SDS011;4969;52.304;4.968;2022-12-29T05:21:29;10.43;;;4.13;;
9860;SDS011;4969;52.304;4.968;2022-12-29T05:23:55;5.50;;;3.60;;
9860;SDS011;4969;52.304;4.968;2022-12-29T05:26:22;9.37;;;5.77;;
9860;SDS011;4969;52.304;4.968;2022-12-29T05:28:48;7.73;;;4.07;;
9860;SDS011;4969;52.304;4.968;2022-12-29T05:31:15;10.70;;;5.00;;
9860;SDS011;4969;52.304;4.968;2022-12-29T05:33:43;9.00;;;4.63;;
9860;SDS011;4969;52.304;4.968;2022-12-29T05:36:10;7.17;;;4.33;;
9860;SDS011;4969;52.304;4.968;2022-12-29T05:38:37;10.10;;;4.87;;
9860;SDS011;4969;52.304;4.968;2022-12-29T05:41:03;7.30;;;3.70;;
9860;SDS011;4969;52.304;4.968;2022-12-29T05:43:30;9.33;;;3.90;;
9860;SDS011;4969;52.304;4.968;2022-12-29T05:45:57;8.90;;;4.07;;
9860;SDS011;4969;52.304;4.968;2022-12-29T05:48:23;6.87;;;3.30;;
9860;SDS011;4969;52.304;4.968;2022-12-29T05:50:51;10.33;;;3.93;;
9860;SDS011;4969;52.304;4.968;2022-12-29T05:53:18;7.50;;;3.30;;
9860;SDS011;4969;52.304;4.968;2022-12-29T05:55:46;7.50;;;2.77;;
9860;SDS011;4969;52.304;4.968;2022-12-29T05:58:13;10.13;;;3.57;;
9860;SDS011;4969;52.304;4.968;2022-12-29T06:00:39;9.03;;;3.90;;
9860;SDS011;4969;52.304;4.968;2022-12-29T06:03:06;12.00;;;3.63;;
9860;SDS011;4969;52.304;4.968;2022-12-29T06:05:33;8.03;;;3.70;;
9860;SDS011;4969;52.304;4.968;2022-12-29T06:08:01;9.70;;;3.40;;
9860;SDS011;4969;52.304;4.968;2022-12-29T06:10:27;9.97;;;3.83;;
9860;SDS011;4969;52.304;4.968;2022-12-29T06:12:54;10.77;;;4.00;;
9860;SDS011;4969;52.304;4.968;2022-12-29T06:15:20;4.40;;;2.93;;
9860;SDS011;4969;52.304;4.968;2022-12-29T06:17:47;8.50;;;2.83;;
9860;SDS011;4969;52.304;4.968;2022-12-29T06:20:14;6.60;;;2.53;;
9860;SDS011;4969;52.304;4.968;2022-12-29T06:22:40;10.03;;;3.63;;
9860;SDS011;4969;52.304;4.968;2022-12-29T06:25:08;10.27;;;3.43;;
9860;SDS011;4969;52.304;4.968;2022-12-29T06:27:35;10.90;;;3.60;;
9860;SDS011;4969;52.304;4.968;2022-12-29T06:30:02;7.80;;;3.27;;
9860;SDS011;4969;52.304;4.968;2022-12-29T06:32:29;12.00;;;3.23;;
9860;SDS011;4969;52.304;4.968;2022-12-29T06:34:55;9.80;;;3.00;;
9860;SDS011;4969;52.304;4.968;2022-12-29T06:37:22;9.50;;;3.00;;
9860;SDS011;4969;52.304;4.968;2022-12-29T06:39:49;9.93;;;3.27;;
9860;SDS011;4969;52.304;4.968;2022-12-29T06:42:17;10.53;;;3.90;;
9860;SDS011;4969;52.304;4.968;2022-12-29T06:44:43;10.40;;;3.40;;
9860;SDS011;4969;52.304;4.968;2022-12-29T06:47:10;10.33;;;3.70;;
9860;SDS011;4969;52.304;4.968;2022-12-29T06:49:37;9.67;;;4.00;;
9860;SDS011;4969;52.304;4.968;2022-12-29T06:52:03;10.83;;;4.33;;
9860;SDS011;4969;52.304;4.968;2022-12-29T06:54:30;8.40;;;4.00;;
9860;SDS011;4969;52.304;4.968;2022-12-29T06:56:57;14.73;;;4.27;;
9860;SDS011;4969;52.304;4.968;2022-12-29T06:59:26;12.37;;;4.47;;
9860;SDS011;4969;52.304;4.968;2022-12-29T07:01:52;13.00;;;4.53;;
9860;SDS011;4969;52.304;4.968;2022-12-29T07:04:19;13.03;;;4.20;;
9860;SDS011;4969;52.304;4.968;2022-12-29T07:06:46;15.77;;;5.40;;
9860;SDS011;4969;52.304;4.968;2022-12-29T07:09:12;15.50;;;6.50;;
9860;SDS011;4969;52.304;4.968;2022-12-29T07:11:39;14.00;;;4.30;;
9860;SDS011;4969;52.304;4.968;2022-12-29T07:14:05;18.03;;;4.43;;
9860;SDS011;4969;52.304;4.968;2022-12-29T07:16:33;14.77;;;4.73;;
9860;SDS011;4969;52.304;4.968;2022-12-29T07:19:00;18.63;;;5.40;;
9860;SDS011;4969;52.304;4.968;2022-12-29T07:21:26;15.70;;;5.73;;
9860;SDS011;4969;52.304;4.968;2022-12-29T07:23:53;17.87;;;5.10;;
9860;SDS011;4969;52.304;4.968;2022-12-29T07:26:20;13.47;;;5.70;;
9860;SDS011;4969;52.304;4.968;2022-12-29T07:28:47;18.77;;;5.87;;
9860;SDS011;4969;52.304;4.968;2022-12-29T07:31:14;15.90;;;4.10;;
9860;SDS011;4969;52.304;4.968;2022-12-29T07:33:43;14.07;;;5.27;;
9860;SDS011;4969;52.304;4.968;2022-12-29T07:36:09;14.57;;;7.37;;
9860;SDS011;4969;52.304;4.968;2022-12-29T07:38:36;14.67;;;6.17;;
9860;SDS011;4969;52.304;4.968;2022-12-29T07:41:03;14.87;;;5.40;;
9860;SDS011;4969;52.304;4.968;2022-12-29T07:43:30;16.60;;;6.67;;
9860;SDS011;4969;52.304;4.968;2022-12-29T07:45:57;13.70;;;4.57;;
9860;SDS011;4969;52.304;4.968;2022-12-29T07:48:23;17.07;;;9.60;;
9860;SDS011;4969;52.304;4.968;2022-12-29T07:50:51;14.30;;;5.57;;
9860;SDS011;4969;52.304;4.968;2022-12-29T07:53:18;11.93;;;6.77;;
9860;SDS011;4969;52.304;4.968;2022-12-29T07:55:45;12.70;;;6.87;;
9860;SDS011;4969;52.304;4.968;2022-12-29T07:58:12;16.67;;;6.67;;
9860;SDS011;4969;52.304;4.968;2022-12-29T08:00:38;11.07;;;5.40;;
9860;SDS011;4969;52.304;4.968;2022-12-29T08:03:05;9.77;;;3.40;;
9860;SDS011;4969;52.304;4.968;2022-12-29T08:05:32;14.33;;;6.70;;
9860;SDS011;4969;52.304;4.968;2022-12-29T08:08:01;13.07;;;6.27;;
9860;SDS011;4969;52.304;4.968;2022-12-29T08:10:27;12.23;;;3.73;;
9860;SDS011;4969;52.304;4.968;2022-12-29T08:12:54;11.30;;;4.20;;
9860;SDS011;4969;52.304;4.968;2022-12-29T08:15:20;14.20;;;3.93;;
9860;SDS011;4969;52.304;4.968;2022-12-29T08:17:47;19.87;;;7.87;;
9860;SDS011;4969;52.304;4.968;2022-12-29T08:20:14;14.77;;;6.37;;
9860;SDS011;4969;52.304;4.968;2022-12-29T08:22:40;19.03;;;7.97;;
9860;SDS011;4969;52.304;4.968;2022-12-29T08:25:09;11.60;;;3.70;;
9860;SDS011;4969;52.304;4.968;2022-12-29T08:27:35;14.37;;;6.27;;
9860;SDS011;4969;52.304;4.968;2022-12-29T08:30:02;20.37;;;8.57;;
9860;SDS011;4969;52.304;4.968;2022-12-29T08:32:30;14.53;;;5.83;;
9860;SDS011;4969;52.304;4.968;2022-12-29T08:34:56;11.57;;;2.90;;
9860;SDS011;4969;52.304;4.968;2022-12-29T08:37:23;25.10;;;9.60;;
9860;SDS011;4969;52.304;4.968;2022-12-29T08:39:50;17.73;;;4.97;;
9860;SDS011;4969;52.304;4.968;2022-12-29T08:42:17;12.67;;;4.37;;
9860;SDS011;4969;52.304;4.968;2022-12-29T08:44:44;18.33;;;6.50;;
9860;SDS011;4969;52.304;4.968;2022-12-29T08:47:11;14.27;;;6.30;;
9860;SDS011;4969;52.304;4.968;2022-12-29T08:49:37;11.70;;;5.90;;
9860;SDS011;4969;52.304;4.968;2022-12-29T08:52:04;11.57;;;4.23;;
9860;SDS011;4969;52.304;4.968;2022-12-29T08:54:31;13.00;;;5.07;;
9860;SDS011;4969;52.304;4.968;2022-12-29T08:56:58;11.93;;;3.97;;
9860;SDS011;4969;52.304;4.968;2022-12-29T08:59:26;11.63;;;4.30;;
9860;SDS011;4969;52.304;4.968;2022-12-29T09:01:52;17.07;;;5.33;;
9860;SDS011;4969;52.304;4.968;2022-12-29T09:04:19;9.60;;;3.63;;
9860;SDS011;4969;52.304;4.968;2022-12-29T09:06:45;14.70;;;4.70;;
9860;SDS011;4969;52.304;4.968;2022-12-29T09:09:12;11.37;;;4.10;;
9860;SDS011;4969;52.304;4.968;2022-12-29T09:11:38;13.67;;;5.33;;
9860;SDS011;4969;52.304;4.968;2022-12-29T09:14:05;13.23;;;3.87;;
9860;SDS011;4969;52.304;4.968;2022-12-29T09:16:33;10.90;;;4.57;;
9860;SDS011;4969;52.304;4.968;2022-12-29T09:19:00;9.63;;;3.90;;
9860;SDS011;4969;52.304;4.968;2022-12-29T09:21:27;11.40;;;4.20;;
9860;SDS011;4969;52.304;4.968;2022-12-29T09:23:54;12.87;;;4.70;;
9860;SDS011;4969;52.304;4.968;2022-12-29T09:26:21;9.10;;;3.83;;
9860;SDS011;4969;52.304;4.968;2022-12-29T09:28:47;12.30;;;4.70;;
9860;SDS011;4969;52.304;4.968;2022-12-29T09:31:14;10.43;;;3.93;;
9860;SDS011;4969;52.304;4.968;2022-12-29T09:33:42;6.77;;;3.10;;
9860;SDS011;4969;52.304;4.968;2022-12-29T09:36:08;10.27;;;4.40;;
9860;SDS011;4969;52.304;4.968;2022-12-29T09:38:35;9.10;;;3.70;;
9860;SDS011;4969;52.304;4.968;2022-12-29T09:41:04;8.33;;;3.93;;
9860;SDS011;4969;52.304;4.968;2022-12-29T09:43:45;12.23;;;4.17;;
9860;SDS011;4969;52.304;4.968;2022-12-29T09:46:23;8.83;;;4.07;;
9860;SDS011;4969;52.304;4.968;2022-12-29T09:48:55;7.40;;;3.93;;
9860;SDS011;4969;52.304;4.968;2022-12-29T09:51:30;12.60;;;3.50;;
9860;SDS011;4969;52.304;4.968;2022-12-29T09:53:58;10.27;;;4.30;;
9860;SDS011;4969;52.304;4.968;2022-12-29T09:56:29;12.07;;;3.43;;
9860;SDS011;4969;52.304;4.968;2022-12-29T09:58:57;11.53;;;4.83;;
9860;SDS011;4969;52.304;4.968;2022-12-29T10:01:27;10.67;;;3.90;;
9860;SDS011;4969;52.304;4.968;2022-12-29T10:04:00;12.00;;;3.70;;
9860;SDS011;4969;52.304;4.968;2022-12-29T10:06:31;11.67;;;4.37;;
9860;SDS011;4969;52.304;4.968;2022-12-29T10:09:08;12.17;;;3.80;;
9860;SDS011;4969;52.304;4.968;2022-12-29T10:14:41;14.37;;;4.67;;
9860;SDS011;4969;52.304;4.968;2022-12-29T10:17:20;12.10;;;4.10;;
9860;SDS011;4969;52.304;4.968;2022-12-29T10:19:59;15.23;;;4.03;;
9860;SDS011;4969;52.304;4.968;2022-12-29T10:22:40;14.27;;;5.07;;
9860;SDS011;4969;52.304;4.968;2022-12-29T10:25:18;15.90;;;4.63;;
9860;SDS011;4969;52.304;4.968;2022-12-29T10:27:47;18.70;;;5.47;;
9860;SDS011;4969;52.304;4.968;2022-12-29T10:30:14;17.37;;;7.10;;
9860;SDS011;4969;52.304;4.968;2022-12-29T10:32:43;19.27;;;5.07;;
9860;SDS011;4969;52.304;4.968;2022-12-29T10:35:15;24.37;;;11.33;;
9860;SDS011;4969;52.304;4.968;2022-12-29T10:37:46;22.13;;;6.53;;
9860;SDS011;4969;52.304;4.968;2022-12-29T10:40:19;19.23;;;8.10;;
9860;SDS011;4969;52.304;4.968;2022-12-29T10:42:52;24.10;;;8.77;;
9860;SDS011;4969;52.304;4.968;2022-12-29T10:45:19;16.57;;;6.40;;
9860;SDS011;4969;52.304;4.968;2022-12-29T10:47:52;19.30;;;8.93;;
9860;SDS011;4969;52.304;4.968;2022-12-29T10:50:23;20.87;;;9.10;;
9860;SDS011;4969;52.304;4.968;2022-12-29T10:52:51;25.10;;;8.47;;
9860;SDS011;4969;52.304;4.968;2022-12-29T10:55:19;20.20;;;7.53;;
9860;SDS011;4969;52.304;4.968;2022-12-29T10:57:49;18.47;;;6.73;;
9860;SDS011;4969;52.304;4.968;2022-12-29T11:00:16;21.77;;;10.20;;
9860;SDS011;4969;52.304;4.968;2022-12-29T11:02:53;22.37;;;8.03;;
9860;SDS011;4969;52.304;4.968;2022-12-29T11:05:34;21.47;;;7.63;;
9860;SDS011;4969;52.304;4.968;2022-12-29T11:08:04;21.60;;;6.37;;
9860;SDS011;4969;52.304;4.968;2022-12-29T11:10:37;22.13;;;7.03;;
9860;SDS011;4969;52.304;4.968;2022-12-29T11:13:10;19.23;;;5.77;;
9860;SDS011;4969;52.304;4.968;2022-12-29T11:15:40;15.80;;;4.83;;
9860;SDS011;4969;52.304;4.968;2022-12-29T11:18:17;17.63;;;5.37;;
9860;SDS011;4969;52.304;4.968;2022-12-29T11:20:47;22.00;;;6.23;;
9860;SDS011;4969;52.304;4.968;2022-12-29T11:23:21;15.67;;;6.40;;
9860;SDS011;4969;52.304;4.968;2022-12-29T11:26:11;17.70;;;5.87;;
9860;SDS011;4969;52.304;4.968;2022-12-29T11:28:41;24.53;;;7.57;;
9860;SDS011;4969;52.304;4.968;2022-12-29T11:31:09;19.70;;;5.07;;
9860;SDS011;4969;52.304;4.968;2022-12-29T11:33:36;20.73;;;6.47;;
9860;SDS011;4969;52.304;4.968;2022-12-29T11:36:07;22.87;;;10.87;;
9860;SDS011;4969;52.304;4.968;2022-12-29T11:38:38;20.73;;;7.37;;
9860;SDS011;4969;52.304;4.968;2022-12-29T11:41:06;17.17;;;5.10;;
9860;SDS011;4969;52.304;4.968;2022-12-29T11:43:39;20.63;;;6.60;;
9860;SDS011;4969;52.304;4.968;2022-12-29T11:46:12;15.30;;;5.17;;
9860;SDS011;4969;52.304;4.968;2022-12-29T11:48:42;17.00;;;5.83;;
9860;SDS011;4969;52.304;4.968;2022-12-29T11:51:10;14.67;;;6.17;;
9860;SDS011;4969;52.304;4.968;2022-12-29T11:53:38;18.43;;;5.77;;
9860;SDS011;4969;52.304;4.968;2022-12-29T11:56:09;15.50;;;5.10;;
9860;SDS011;4969;52.304;4.968;2022-12-29T11:58:38;15.40;;;5.30;;
9860;SDS011;4969;52.304;4.968;2022-12-29T12:01:06;12.43;;;3.70;;
9860;SDS011;4969;52.304;4.968;2022-12-29T12:03:40;14.07;;;5.60;;
9860;SDS011;4969;52.304;4.968;2022-12-29T12:06:16;12.53;;;5.87;;
9860;SDS011;4969;52.304;4.968;2022-12-29T12:08:46;11.33;;;3.20;;
9860;SDS011;4969;52.304;4.968;2022-12-29T12:11:17;12.57;;;4.13;;
9860;SDS011;4969;52.304;4.968;2022-12-29T12:13:47;9.17;;;2.97;;
9860;SDS011;4969;52.304;4.968;2022-12-29T12:16:25;13.37;;;6.23;;
9860;SDS011;4969;52.304;4.968;2022-12-29T12:18:57;7.37;;;3.17;;
9860;SDS011;4969;52.304;4.968;2022-12-29T12:21:32;10.30;;;3.40;;
9860;SDS011;4969;52.304;4.968;2022-12-29T12:24:11;12.37;;;3.90;;
9860;SDS011;4969;52.304;4.968;2022-12-29T12:26:53;13.83;;;5.17;;
9860;SDS011;4969;52.304;4.968;2022-12-29T12:29:24;14.53;;;5.47;;
9860;SDS011;4969;52.304;4.968;2022-12-29T12:31:57;9.67;;;2.80;;
9860;SDS011;4969;52.304;4.968;2022-12-29T12:34:28;8.27;;;3.63;;
9860;SDS011;4969;52.304;4.968;2022-12-29T12:37:13;8.33;;;3.47;;
9860;SDS011;4969;52.304;4.968;2022-12-29T12:39:49;7.33;;;3.00;;
9860;SDS011;4969;52.304;4.968;2022-12-29T12:42:34;9.77;;;2.93;;
9860;SDS011;4969;52.304;4.968;2022-12-29T12:45:26;6.93;;;2.80;;
9860;SDS011;4969;52.304;4.968;2022-12-29T12:48:06;7.80;;;2.97;;
9860;SDS011;4969;52.304;4.968;2022-12-29T12:50:47;8.70;;;2.37;;
9860;SDS011;4969;52.304;4.968;2022-12-29T12:53:28;10.00;;;4.53;;
9860;SDS011;4969;52.304;4.968;2022-12-29T12:56:10;7.33;;;2.87;;
9860;SDS011;4969;52.304;4.968;2022-12-29T12:58:59;10.30;;;4.07;;
9860;SDS011;4969;52.304;4.968;2022-12-29T13:01:36;8.67;;;4.40;;
9860;SDS011;4969;52.304;4.968;2022-12-29T13:07:10;10.97;;;3.27;;
9860;SDS011;4969;52.304;4.968;2022-12-29T13:09:46;9.57;;;4.03;;
9860;SDS011;4969;52.304;4.968;2022-12-29T13:12:24;13.37;;;4.97;;
9860;SDS011;4969;52.304;4.968;2022-12-29T13:15:03;12.17;;;4.90;;
9860;SDS011;4969;52.304;4.968;2022-12-29T13:17:40;14.83;;;5.20;;
9860;SDS011;4969;52.304;4.968;2022-12-29T13:20:16;15.20;;;5.77;;
9860;SDS011;4969;52.304;4.968;2022-12-29T13:22:51;14.73;;;3.80;;
9860;SDS011;4969;52.304;4.968;2022-12-29T13:25:29;15.53;;;6.13;;
9860;SDS011;4969;52.304;4.968;2022-12-29T13:28:01;13.80;;;5.97;;
9860;SDS011;4969;52.304;4.968;2022-12-29T13:30:33;18.53;;;4.07;;
9860;SDS011;4969;52.304;4.968;2022-12-29T13:33:05;17.53;;;6.90;;
9860;SDS011;4969;52.304;4.968;2022-12-29T13:35:44;13.43;;;5.10;;
9860;SDS011;4969;52.304;4.968;2022-12-29T13:38:22;16.27;;;4.67;;
9860;SDS011;4969;52.304;4.968;2022-12-29T13:40:54;9.87;;;3.90;;
9860;SDS011;4969;52.304;4.968;2022-12-29T13:43:23;14.27;;;6.43;;
9860;SDS011;4969;52.304;4.968;2022-12-29T13:45:55;16.33;;;6.10;;
9860;SDS011;4969;52.304;4.968;2022-12-29T13:48:31;10.77;;;3.30;;
9860;SDS011;4969;52.304;4.968;2022-12-29T13:51:03;14.20;;;4.70;;
9860;SDS011;4969;52.304;4.968;2022-12-29T13:53:33;11.53;;;6.20;;
9860;SDS011;4969;52.304;4.968;2022-12-29T13:56:09;13.03;;;5.17;;
9860;SDS011;4969;52.304;4.968;2022-12-29T13:58:44;13.07;;;5.23;;
9860;SDS011;4969;52.304;4.968;2022-12-29T14:01:17;11.07;;;3.30;;
9860;SDS011;4969;52.304;4.968;2022-12-29T14:03:48;13.33;;;5.10;;
9860;SDS011;4969;52.304;4.968;2022-12-29T14:06:18;12.83;;;4.83;;
9860;SDS011;4969;52.304;4.968;2022-12-29T14:08:48;13.47;;;5.00;;
9860;SDS011;4969;52.304;4.968;2022-12-29T14:11:20;11.63;;;4.40;;
9860;SDS011;4969;52.304;4.968;2022-12-29T14:13:49;13.47;;;4.70;;
9860;SDS011;4969;52.304;4.968;2022-12-29T14:16:25;14.67;;;4.30;;
9860;SDS011;4969;52.304;4.968;2022-12-29T14:18:53;9.57;;;3.47;;
9860;SDS011;4969;52.304;4.968;2022-12-29T14:21:23;14.40;;;6.03;;
9860;SDS011;4969;52.304;4.968;2022-12-29T14:23:56;12.95;;;7.05;;
9860;SDS011;4969;52.304;4.968;2022-12-29T14:26:53;13.23;;;5.50;;
9860;SDS011;4969;52.304;4.968;2022-12-29T14:38:25;9.57;;;4.63;;
9860;SDS011;4969;52.304;4.968;2022-12-29T14:40:53;9.47;;;5.63;;
9860;SDS011;4969;52.304;4.968;2022-12-29T14:43:56;8.00;;;4.13;;
9860;SDS011;4969;52.304;4.968;2022-12-29T14:46:25;10.83;;;6.50;;
9860;SDS011;4969;52.304;4.968;2022-12-29T14:49:16;11.07;;;5.07;;
9860;SDS011;4969;52.304;4.968;2022-12-29T14:51:45;9.50;;;5.10;;
9860;SDS011;4969;52.304;4.968;2022-12-29T15:00:18;11.60;;;3.72;;
9860;SDS011;4969;52.304;4.968;2022-12-29T15:02:49;9.15;;;4.00;;
9860;SDS011;4969;52.304;4.968;2022-12-29T15:05:28;9.38;;;4.85;;
9860;SDS011;4969;52.304;4.968;2022-12-29T15:07:58;9.90;;;2.95;;
9860;SDS011;4969;52.304;4.968;2022-12-29T15:10:30;10.57;;;5.70;;
9860;SDS011;4969;52.304;4.968;2022-12-29T15:13:02;12.25;;;4.75;;
9860;SDS011;4969;52.304;4.968;2022-12-29T15:15:35;10.57;;;5.20;;
9860;SDS011;4969;52.304;4.968;2022-12-29T15:18:22;8.47;;;3.63;;
9860;SDS011;4969;52.304;4.968;2022-12-29T15:20:53;11.37;;;5.43;;
9860;SDS011;4969;52.304;4.968;2022-12-29T15:23:21;12.10;;;6.03;;
9860;SDS011;4969;52.304;4.968;2022-12-29T15:25:49;9.00;;;3.42;;
9860;SDS011;4969;52.304;4.968;2022-12-29T15:28:19;10.85;;;4.40;;
9860;SDS011;4969;52.304;4.968;2022-12-29T15:30:52;10.18;;;3.95;;
9860;SDS011;4969;52.304;4.968;2022-12-29T15:33:21;13.60;;;5.55;;
9860;SDS011;4969;52.304;4.968;2022-12-29T15:35:49;11.40;;;3.60;;
9860;SDS011;4969;52.304;4.968;2022-12-29T15:38:20;9.98;;;2.72;;
9860;SDS011;4969;52.304;4.968;2022-12-29T15:40:51;13.23;;;5.90;;
9860;SDS011;4969;52.304;4.968;2022-12-29T15:43:29;9.80;;;3.23;;
9860;SDS011;4969;52.304;4.968;2022-12-29T15:46:06;12.93;;;4.30;;
9860;SDS011;4969;52.304;4.968;2022-12-29T15:48:32;13.07;;;3.60;;
9860;SDS011;4969;52.304;4.968;2022-12-29T15:50:59;14.97;;;5.20;;
9860;SDS011;4969;52.304;4.968;2022-12-29T15:53:27;10.53;;;4.70;;